sensor_id;sensor_type;location;lat;lon;timestamp;P1;durP1;ratioP1;P2;durP2;ratioP2
7901;SDS011;3996;49.674;10.716;2022-12-07T00:00:03;7.57;;;5.77;;
7901;SDS011;3996;49.674;10.716;2022-12-07T00:02:30;7.10;;;5.67;;
7901;SDS011;3996;49.674;10.716;2022-12-07T00:04:56;6.63;;;5.93;;
7901;SDS011;3996;49.674;10.716;2022-12-07T00:07:21;8.10;;;6.43;;
7901;SDS011;3996;49.674;10.716;2022-12-07T00:09:47;10.73;;;6.07;;
7901;SDS011;3996;49.674;10.716;2022-12-07T00:12:12;6.90;;;5.83;;
7901;SDS011;3996;49.674;10.716;2022-12-07T00:14:38;7.57;;;5.90;;
7901;SDS011;3996;49.674;10.716;2022-12-07T00:17:03;6.77;;;5.53;;
7901;SDS011;3996;49.674;10.716;2022-12-07T00:19:29;7.40;;;6.00;;
7901;SDS011;3996;49.674;10.716;2022-12-07T00:21:54;7.83;;;6.30;;
7901;SDS011;3996;49.674;10.716;2022-12-07T00:24:20;8.10;;;6.50;;
7901;SDS011;3996;49.674;10.716;2022-12-07T00:26:46;7.77;;;6.47;;
7901;SDS011;3996;49.674;10.716;2022-12-07T00:29:14;7.07;;;5.83;;
7901;SDS011;3996;49.674;10.716;2022-12-07T00:31:42;8.10;;;6.20;;
7901;SDS011;3996;49.674;10.716;2022-12-07T00:34:09;8.17;;;6.27;;
7901;SDS011;3996;49.674;10.716;2022-12-07T00:36:38;9.07;;;6.43;;
7901;SDS011;3996;49.674;10.716;2022-12-07T00:39:04;7.20;;;6.00;;
7901;SDS011;3996;49.674;10.716;2022-12-07T00:41:29;8.47;;;5.90;;
7901;SDS011;3996;49.674;10.716;2022-12-07T00:43:55;8.43;;;6.13;;
7901;SDS011;3996;49.674;10.716;2022-12-07T00:46:22;8.90;;;6.37;;
7901;SDS011;3996;49.674;10.716;2022-12-07T00:48:48;7.70;;;6.10;;
7901;SDS011;3996;49.674;10.716;2022-12-07T00:51:16;8.73;;;6.47;;
7901;SDS011;3996;49.674;10.716;2022-12-07T00:53:43;8.37;;;6.57;;
7901;SDS011;3996;49.674;10.716;2022-12-07T00:56:17;7.67;;;6.13;;
7901;SDS011;3996;49.674;10.716;2022-12-07T00:58:49;8.90;;;6.57;;
7901;SDS011;3996;49.674;10.716;2022-12-07T01:01:15;8.77;;;6.80;;
7901;SDS011;3996;49.674;10.716;2022-12-07T01:03:41;7.97;;;6.53;;
7901;SDS011;3996;49.674;10.716;2022-12-07T01:06:07;8.93;;;6.50;;
7901;SDS011;3996;49.674;10.716;2022-12-07T01:08:32;9.10;;;7.07;;
7901;SDS011;3996;49.674;10.716;2022-12-07T01:10:59;9.13;;;6.90;;
7901;SDS011;3996;49.674;10.716;2022-12-07T01:13:27;9.20;;;6.33;;
7901;SDS011;3996;49.674;10.716;2022-12-07T01:15:55;8.20;;;6.20;;
7901;SDS011;3996;49.674;10.716;2022-12-07T01:18:26;11.07;;;7.17;;
7901;SDS011;3996;49.674;10.716;2022-12-07T01:21:29;9.37;;;6.97;;
7901;SDS011;3996;49.674;10.716;2022-12-07T01:23:52;8.50;;;6.40;;
7901;SDS011;3996;49.674;10.716;2022-12-07T01:26:19;9.60;;;7.23;;
7901;SDS011;3996;49.674;10.716;2022-12-07T01:28:47;8.63;;;6.83;;
7901;SDS011;3996;49.674;10.716;2022-12-07T01:31:13;8.83;;;6.40;;
7901;SDS011;3996;49.674;10.716;2022-12-07T01:33:42;8.10;;;6.53;;
7901;SDS011;3996;49.674;10.716;2022-12-07T01:36:13;9.40;;;7.00;;
7901;SDS011;3996;49.674;10.716;2022-12-07T01:38:39;8.73;;;7.13;;
7901;SDS011;3996;49.674;10.716;2022-12-07T01:41:05;8.97;;;6.53;;
7901;SDS011;3996;49.674;10.716;2022-12-07T01:43:32;9.27;;;7.43;;
7901;SDS011;3996;49.674;10.716;2022-12-07T01:45:58;10.77;;;7.27;;
7901;SDS011;3996;49.674;10.716;2022-12-07T01:48:35;9.40;;;6.77;;
7901;SDS011;3996;49.674;10.716;2022-12-07T01:51:05;10.73;;;7.40;;
7901;SDS011;3996;49.674;10.716;2022-12-07T01:53:36;9.17;;;6.77;;
7901;SDS011;3996;49.674;10.716;2022-12-07T01:56:11;10.40;;;7.57;;
7901;SDS011;3996;49.674;10.716;2022-12-07T01:58:42;9.33;;;7.13;;
7901;SDS011;3996;49.674;10.716;2022-12-07T02:01:08;9.47;;;7.13;;
7901;SDS011;3996;49.674;10.716;2022-12-07T02:03:35;9.93;;;7.60;;
7901;SDS011;3996;49.674;10.716;2022-12-07T02:06:06;9.60;;;6.67;;
7901;SDS011;3996;49.674;10.716;2022-12-07T02:08:33;11.87;;;7.50;;
7901;SDS011;3996;49.674;10.716;2022-12-07T02:11:00;9.80;;;7.33;;
7901;SDS011;3996;49.674;10.716;2022-12-07T02:13:27;9.53;;;7.27;;
7901;SDS011;3996;49.674;10.716;2022-12-07T02:21:46;11.27;;;8.10;;
7901;SDS011;3996;49.674;10.716;2022-12-07T02:27:21;11.80;;;7.50;;
7901;SDS011;3996;49.674;10.716;2022-12-07T02:30:09;10.20;;;7.10;;
7901;SDS011;3996;49.674;10.716;2022-12-07T02:32:51;10.50;;;7.03;;
7901;SDS011;3996;49.674;10.716;2022-12-07T02:35:24;9.37;;;6.90;;
7901;SDS011;3996;49.674;10.716;2022-12-07T02:40:35;10.87;;;7.43;;
7901;SDS011;3996;49.674;10.716;2022-12-07T02:45:42;10.30;;;7.33;;
7901;SDS011;3996;49.674;10.716;2022-12-07T02:48:11;9.83;;;7.27;;
7901;SDS011;3996;49.674;10.716;2022-12-07T02:50:43;11.07;;;7.47;;
7901;SDS011;3996;49.674;10.716;2022-12-07T02:55:54;10.20;;;7.80;;
7901;SDS011;3996;49.674;10.716;2022-12-07T03:03:45;9.50;;;7.00;;
7901;SDS011;3996;49.674;10.716;2022-12-07T03:06:29;9.47;;;7.20;;
7901;SDS011;3996;49.674;10.716;2022-12-07T03:09:21;11.03;;;7.60;;
7901;SDS011;3996;49.674;10.716;2022-12-07T03:11:55;10.80;;;8.00;;
7901;SDS011;3996;49.674;10.716;2022-12-07T03:14:30;13.60;;;10.30;;
7901;SDS011;3996;49.674;10.716;2022-12-07T03:17:01;11.63;;;8.20;;
7901;SDS011;3996;49.674;10.716;2022-12-07T03:19:33;11.53;;;7.80;;
7901;SDS011;3996;49.674;10.716;2022-12-07T03:22:01;11.57;;;7.90;;
7901;SDS011;3996;49.674;10.716;2022-12-07T03:24:35;11.27;;;7.73;;
7901;SDS011;3996;49.674;10.716;2022-12-07T03:27:13;10.90;;;7.47;;
7901;SDS011;3996;49.674;10.716;2022-12-07T03:29:49;10.30;;;7.33;;
7901;SDS011;3996;49.674;10.716;2022-12-07T03:32:34;17.73;;;13.20;;
7901;SDS011;3996;49.674;10.716;2022-12-07T03:35:12;17.40;;;11.87;;
7901;SDS011;3996;49.674;10.716;2022-12-07T03:37:45;15.77;;;10.43;;
7901;SDS011;3996;49.674;10.716;2022-12-07T03:43:00;15.20;;;10.03;;
7901;SDS011;3996;49.674;10.716;2022-12-07T03:45:37;13.17;;;8.37;;
7901;SDS011;3996;49.674;10.716;2022-12-07T03:48:08;12.73;;;8.17;;
7901;SDS011;3996;49.674;10.716;2022-12-07T03:50:52;12.03;;;7.90;;
7901;SDS011;3996;49.674;10.716;2022-12-07T03:53:41;12.07;;;8.23;;
7901;SDS011;3996;49.674;10.716;2022-12-07T03:56:16;12.77;;;7.53;;
7901;SDS011;3996;49.674;10.716;2022-12-07T03:58:44;11.93;;;8.20;;
7901;SDS011;3996;49.674;10.716;2022-12-07T04:01:09;15.80;;;9.37;;
7901;SDS011;3996;49.674;10.716;2022-12-07T04:03:35;12.23;;;8.30;;
7901;SDS011;3996;49.674;10.716;2022-12-07T04:06:01;15.83;;;9.00;;
7901;SDS011;3996;49.674;10.716;2022-12-07T04:08:27;13.23;;;8.53;;
7901;SDS011;3996;49.674;10.716;2022-12-07T04:10:52;12.07;;;8.40;;
7901;SDS011;3996;49.674;10.716;2022-12-07T04:13:18;14.83;;;9.43;;
7901;SDS011;3996;49.674;10.716;2022-12-07T04:15:44;13.27;;;9.23;;
7901;SDS011;3996;49.674;10.716;2022-12-07T04:18:09;15.83;;;9.20;;
7901;SDS011;3996;49.674;10.716;2022-12-07T04:20:35;14.00;;;8.73;;
7901;SDS011;3996;49.674;10.716;2022-12-07T04:23:00;14.80;;;9.63;;
7901;SDS011;3996;49.674;10.716;2022-12-07T04:25:26;14.70;;;9.43;;
7901;SDS011;3996;49.674;10.716;2022-12-07T04:27:51;14.03;;;9.17;;
7901;SDS011;3996;49.674;10.716;2022-12-07T04:30:18;14.17;;;9.93;;
7901;SDS011;3996;49.674;10.716;2022-12-07T04:32:44;13.30;;;9.07;;
7901;SDS011;3996;49.674;10.716;2022-12-07T04:35:09;14.43;;;8.80;;
7901;SDS011;3996;49.674;10.716;2022-12-07T04:37:35;13.83;;;9.17;;
7901;SDS011;3996;49.674;10.716;2022-12-07T04:40:01;15.47;;;9.90;;
7901;SDS011;3996;49.674;10.716;2022-12-07T04:42:27;17.30;;;10.10;;
7901;SDS011;3996;49.674;10.716;2022-12-07T04:44:53;16.90;;;10.63;;
7901;SDS011;3996;49.674;10.716;2022-12-07T04:47:18;19.27;;;10.80;;
7901;SDS011;3996;49.674;10.716;2022-12-07T04:49:44;17.17;;;9.63;;
7901;SDS011;3996;49.674;10.716;2022-12-07T04:52:09;14.73;;;9.30;;
7901;SDS011;3996;49.674;10.716;2022-12-07T04:54:35;17.17;;;10.17;;
7901;SDS011;3996;49.674;10.716;2022-12-07T04:57:01;14.50;;;10.07;;
7901;SDS011;3996;49.674;10.716;2022-12-07T04:59:26;14.80;;;9.40;;
7901;SDS011;3996;49.674;10.716;2022-12-07T05:01:52;16.67;;;10.27;;
7901;SDS011;3996;49.674;10.716;2022-12-07T05:04:17;15.37;;;9.73;;
7901;SDS011;3996;49.674;10.716;2022-12-07T05:06:43;16.60;;;10.17;;
7901;SDS011;3996;49.674;10.716;2022-12-07T05:09:08;16.10;;;9.93;;
7901;SDS011;3996;49.674;10.716;2022-12-07T05:11:34;16.13;;;9.97;;
7901;SDS011;3996;49.674;10.716;2022-12-07T05:14:03;18.23;;;10.80;;
7901;SDS011;3996;49.674;10.716;2022-12-07T05:16:38;16.93;;;10.90;;
7901;SDS011;3996;49.674;10.716;2022-12-07T05:19:04;16.37;;;10.77;;
7901;SDS011;3996;49.674;10.716;2022-12-07T05:21:30;17.77;;;12.13;;
7901;SDS011;3996;49.674;10.716;2022-12-07T05:23:56;16.90;;;11.23;;
7901;SDS011;3996;49.674;10.716;2022-12-07T05:26:21;18.00;;;11.30;;
7901;SDS011;3996;49.674;10.716;2022-12-07T05:28:54;16.83;;;10.97;;
7901;SDS011;3996;49.674;10.716;2022-12-07T05:31:20;16.97;;;10.73;;
7901;SDS011;3996;49.674;10.716;2022-12-07T05:33:47;17.20;;;11.43;;
7901;SDS011;3996;49.674;10.716;2022-12-07T05:36:13;17.97;;;10.77;;
7901;SDS011;3996;49.674;10.716;2022-12-07T05:38:38;15.90;;;10.63;;
7901;SDS011;3996;49.674;10.716;2022-12-07T05:41:05;16.53;;;10.53;;
7901;SDS011;3996;49.674;10.716;2022-12-07T05:43:31;14.80;;;9.77;;
7901;SDS011;3996;49.674;10.716;2022-12-07T05:45:57;15.10;;;10.23;;
7901;SDS011;3996;49.674;10.716;2022-12-07T05:48:23;12.97;;;9.10;;
7901;SDS011;3996;49.674;10.716;2022-12-07T05:50:50;13.73;;;9.13;;
7901;SDS011;3996;49.674;10.716;2022-12-07T05:53:16;14.97;;;9.60;;
7901;SDS011;3996;49.674;10.716;2022-12-07T05:55:42;14.30;;;9.50;;
7901;SDS011;3996;49.674;10.716;2022-12-07T05:58:08;17.03;;;9.50;;
7901;SDS011;3996;49.674;10.716;2022-12-07T06:00:54;15.07;;;10.37;;
7901;SDS011;3996;49.674;10.716;2022-12-07T06:03:20;14.13;;;9.73;;
7901;SDS011;3996;49.674;10.716;2022-12-07T06:05:46;14.60;;;9.70;;
7901;SDS011;3996;49.674;10.716;2022-12-07T06:08:12;17.80;;;9.97;;
7901;SDS011;3996;49.674;10.716;2022-12-07T06:10:39;15.43;;;9.50;;
7901;SDS011;3996;49.674;10.716;2022-12-07T06:13:05;23.33;;;12.33;;
7901;SDS011;3996;49.674;10.716;2022-12-07T06:15:31;23.83;;;11.43;;
7901;SDS011;3996;49.674;10.716;2022-12-07T06:17:56;18.37;;;10.70;;
7901;SDS011;3996;49.674;10.716;2022-12-07T06:20:22;20.57;;;11.00;;
7901;SDS011;3996;49.674;10.716;2022-12-07T06:22:47;21.43;;;11.67;;
7901;SDS011;3996;49.674;10.716;2022-12-07T06:25:13;17.40;;;10.33;;
7901;SDS011;3996;49.674;10.716;2022-12-07T06:27:38;19.07;;;10.77;;
7901;SDS011;3996;49.674;10.716;2022-12-07T06:30:04;18.97;;;10.80;;
7901;SDS011;3996;49.674;10.716;2022-12-07T06:32:32;14.77;;;9.90;;
7901;SDS011;3996;49.674;10.716;2022-12-07T06:34:58;17.67;;;10.60;;
7901;SDS011;3996;49.674;10.716;2022-12-07T06:37:24;18.50;;;10.40;;
7901;SDS011;3996;49.674;10.716;2022-12-07T06:39:50;14.67;;;9.40;;
7901;SDS011;3996;49.674;10.716;2022-12-07T06:42:15;16.90;;;10.17;;
7901;SDS011;3996;49.674;10.716;2022-12-07T06:44:41;16.13;;;10.53;;
7901;SDS011;3996;49.674;10.716;2022-12-07T06:47:06;18.23;;;10.13;;
7901;SDS011;3996;49.674;10.716;2022-12-07T06:49:32;17.33;;;10.30;;
7901;SDS011;3996;49.674;10.716;2022-12-07T06:51:58;27.10;;;12.17;;
7901;SDS011;3996;49.674;10.716;2022-12-07T06:54:24;24.30;;;11.87;;
7901;SDS011;3996;49.674;10.716;2022-12-07T06:56:50;24.63;;;12.27;;
7901;SDS011;3996;49.674;10.716;2022-12-07T06:59:15;21.07;;;11.00;;
7901;SDS011;3996;49.674;10.716;2022-12-07T07:01:41;15.63;;;9.53;;
7901;SDS011;3996;49.674;10.716;2022-12-07T07:04:07;16.73;;;9.80;;
7901;SDS011;3996;49.674;10.716;2022-12-07T07:06:32;16.67;;;10.40;;
7901;SDS011;3996;49.674;10.716;2022-12-07T07:08:58;16.33;;;10.37;;
7901;SDS011;3996;49.674;10.716;2022-12-07T07:11:24;18.00;;;10.53;;
7901;SDS011;3996;49.674;10.716;2022-12-07T07:13:49;19.20;;;11.30;;
7901;SDS011;3996;49.674;10.716;2022-12-07T07:16:15;18.33;;;10.20;;
7901;SDS011;3996;49.674;10.716;2022-12-07T07:18:41;16.77;;;10.13;;
7901;SDS011;3996;49.674;10.716;2022-12-07T07:21:07;18.03;;;10.00;;
7901;SDS011;3996;49.674;10.716;2022-12-07T07:23:32;18.23;;;10.60;;
7901;SDS011;3996;49.674;10.716;2022-12-07T07:25:58;15.80;;;10.37;;
7901;SDS011;3996;49.674;10.716;2022-12-07T07:28:23;18.70;;;10.73;;
7901;SDS011;3996;49.674;10.716;2022-12-07T07:30:49;20.03;;;11.03;;
7901;SDS011;3996;49.674;10.716;2022-12-07T07:33:15;21.97;;;12.53;;
7901;SDS011;3996;49.674;10.716;2022-12-07T07:35:41;20.47;;;11.70;;
7901;SDS011;3996;49.674;10.716;2022-12-07T07:38:07;21.17;;;11.57;;
7901;SDS011;3996;49.674;10.716;2022-12-07T07:40:33;18.00;;;11.33;;
7901;SDS011;3996;49.674;10.716;2022-12-07T07:42:59;19.93;;;10.67;;
7901;SDS011;3996;49.674;10.716;2022-12-07T07:45:25;17.83;;;10.80;;
7901;SDS011;3996;49.674;10.716;2022-12-07T07:47:53;16.57;;;10.97;;
7901;SDS011;3996;49.674;10.716;2022-12-07T07:50:19;16.50;;;10.13;;
7901;SDS011;3996;49.674;10.716;2022-12-07T07:52:46;17.27;;;10.83;;
7901;SDS011;3996;49.674;10.716;2022-12-07T07:55:11;17.43;;;10.17;;
7901;SDS011;3996;49.674;10.716;2022-12-07T07:57:38;15.97;;;10.33;;
7901;SDS011;3996;49.674;10.716;2022-12-07T08:00:05;15.13;;;10.20;;
7901;SDS011;3996;49.674;10.716;2022-12-07T08:02:42;16.33;;;10.23;;
7901;SDS011;3996;49.674;10.716;2022-12-07T08:05:10;18.07;;;10.83;;
7901;SDS011;3996;49.674;10.716;2022-12-07T08:07:36;18.17;;;10.53;;
7901;SDS011;3996;49.674;10.716;2022-12-07T08:10:07;15.30;;;10.33;;
7901;SDS011;3996;49.674;10.716;2022-12-07T08:12:37;16.07;;;10.47;;
7901;SDS011;3996;49.674;10.716;2022-12-07T08:15:26;16.63;;;10.50;;
7901;SDS011;3996;49.674;10.716;2022-12-07T08:17:52;16.50;;;10.33;;
7901;SDS011;3996;49.674;10.716;2022-12-07T08:20:18;14.73;;;10.13;;
7901;SDS011;3996;49.674;10.716;2022-12-07T08:22:44;17.80;;;11.10;;
7901;SDS011;3996;49.674;10.716;2022-12-07T08:25:09;15.97;;;9.60;;
7901;SDS011;3996;49.674;10.716;2022-12-07T08:27:35;17.07;;;9.93;;
7901;SDS011;3996;49.674;10.716;2022-12-07T08:30:00;16.47;;;9.93;;
7901;SDS011;3996;49.674;10.716;2022-12-07T08:32:26;16.10;;;10.20;;
7901;SDS011;3996;49.674;10.716;2022-12-07T08:34:52;16.50;;;10.07;;
7901;SDS011;3996;49.674;10.716;2022-12-07T08:37:17;15.83;;;10.23;;
7901;SDS011;3996;49.674;10.716;2022-12-07T08:39:43;14.40;;;9.20;;
7901;SDS011;3996;49.674;10.716;2022-12-07T08:42:08;16.50;;;9.57;;
7901;SDS011;3996;49.674;10.716;2022-12-07T08:44:34;17.07;;;9.70;;
7901;SDS011;3996;49.674;10.716;2022-12-07T08:47:01;14.73;;;9.30;;
7901;SDS011;3996;49.674;10.716;2022-12-07T08:49:33;15.37;;;10.23;;
7901;SDS011;3996;49.674;10.716;2022-12-07T08:52:05;13.80;;;8.83;;
7901;SDS011;3996;49.674;10.716;2022-12-07T08:54:31;16.40;;;10.20;;
7901;SDS011;3996;49.674;10.716;2022-12-07T08:57:00;16.00;;;9.47;;
7901;SDS011;3996;49.674;10.716;2022-12-07T08:59:26;14.27;;;9.40;;
7901;SDS011;3996;49.674;10.716;2022-12-07T09:01:52;18.23;;;9.77;;
7901;SDS011;3996;49.674;10.716;2022-12-07T09:04:18;13.33;;;8.67;;
7901;SDS011;3996;49.674;10.716;2022-12-07T09:06:43;15.50;;;9.57;;
7901;SDS011;3996;49.674;10.716;2022-12-07T09:09:09;18.73;;;11.40;;
7901;SDS011;3996;49.674;10.716;2022-12-07T09:11:36;18.73;;;11.10;;
7901;SDS011;3996;49.674;10.716;2022-12-07T09:14:01;17.70;;;10.77;;
7901;SDS011;3996;49.674;10.716;2022-12-07T09:16:27;14.40;;;9.13;;
7901;SDS011;3996;49.674;10.716;2022-12-07T09:18:53;13.37;;;9.27;;
7901;SDS011;3996;49.674;10.716;2022-12-07T09:21:19;14.47;;;9.00;;
7901;SDS011;3996;49.674;10.716;2022-12-07T09:23:44;13.23;;;8.73;;
7901;SDS011;3996;49.674;10.716;2022-12-07T09:26:10;14.50;;;9.30;;
7901;SDS011;3996;49.674;10.716;2022-12-07T09:28:36;17.90;;;10.93;;
7901;SDS011;3996;49.674;10.716;2022-12-07T09:31:02;13.70;;;8.77;;
7901;SDS011;3996;49.674;10.716;2022-12-07T09:33:28;13.67;;;8.73;;
7901;SDS011;3996;49.674;10.716;2022-12-07T09:35:53;13.67;;;9.10;;
7901;SDS011;3996;49.674;10.716;2022-12-07T09:38:19;15.27;;;9.70;;
7901;SDS011;3996;49.674;10.716;2022-12-07T09:40:46;13.27;;;9.30;;
7901;SDS011;3996;49.674;10.716;2022-12-07T09:43:13;13.50;;;9.07;;
7901;SDS011;3996;49.674;10.716;2022-12-07T09:45:41;15.77;;;9.20;;
7901;SDS011;3996;49.674;10.716;2022-12-07T09:48:16;13.70;;;8.97;;
7901;SDS011;3996;49.674;10.716;2022-12-07T09:50:44;15.30;;;10.33;;
7901;SDS011;3996;49.674;10.716;2022-12-07T09:53:44;14.63;;;9.70;;
7901;SDS011;3996;49.674;10.716;2022-12-07T09:56:02;18.80;;;10.90;;
7901;SDS011;3996;49.674;10.716;2022-12-07T09:58:29;16.50;;;10.13;;
7901;SDS011;3996;49.674;10.716;2022-12-07T10:00:57;16.57;;;10.67;;
7901;SDS011;3996;49.674;10.716;2022-12-07T10:03:27;19.50;;;11.73;;
7901;SDS011;3996;49.674;10.716;2022-12-07T10:05:53;15.77;;;10.93;;
7901;SDS011;3996;49.674;10.716;2022-12-07T10:08:20;13.93;;;8.50;;
7901;SDS011;3996;49.674;10.716;2022-12-07T10:10:46;15.03;;;8.80;;
7901;SDS011;3996;49.674;10.716;2022-12-07T10:13:20;14.43;;;9.97;;
7901;SDS011;3996;49.674;10.716;2022-12-07T10:23:34;12.70;;;8.50;;
7901;SDS011;3996;49.674;10.716;2022-12-07T10:28:55;11.87;;;8.33;;
7901;SDS011;3996;49.674;10.716;2022-12-07T10:31:24;15.07;;;9.10;;
7901;SDS011;3996;49.674;10.716;2022-12-07T10:33:51;12.60;;;8.13;;
7901;SDS011;3996;49.674;10.716;2022-12-07T10:36:22;12.83;;;8.47;;
7901;SDS011;3996;49.674;10.716;2022-12-07T10:41:26;11.67;;;8.23;;
7901;SDS011;3996;49.674;10.716;2022-12-07T10:43:53;12.40;;;8.17;;
7901;SDS011;3996;49.674;10.716;2022-12-07T10:55:17;11.67;;;8.00;;
7901;SDS011;3996;49.674;10.716;2022-12-07T11:00:25;11.80;;;8.73;;
7901;SDS011;3996;49.674;10.716;2022-12-07T11:06:06;13.03;;;8.60;;
7901;SDS011;3996;49.674;10.716;2022-12-07T11:11:38;10.90;;;7.73;;
7901;SDS011;3996;49.674;10.716;2022-12-07T11:16:48;12.47;;;8.47;;
7901;SDS011;3996;49.674;10.716;2022-12-07T11:22:28;18.17;;;11.80;;
7901;SDS011;3996;49.674;10.716;2022-12-07T11:30:49;15.93;;;9.47;;
7901;SDS011;3996;49.674;10.716;2022-12-07T11:40:40;14.60;;;8.73;;
7901;SDS011;3996;49.674;10.716;2022-12-07T11:45:41;12.33;;;8.90;;
7901;SDS011;3996;49.674;10.716;2022-12-07T11:48:16;10.53;;;7.73;;
7901;SDS011;3996;49.674;10.716;2022-12-07T11:50:49;10.70;;;8.10;;
7901;SDS011;3996;49.674;10.716;2022-12-07T12:03:40;11.40;;;8.70;;
7901;SDS011;3996;49.674;10.716;2022-12-07T12:06:11;9.67;;;6.93;;
7901;SDS011;3996;49.674;10.716;2022-12-07T12:08:54;11.43;;;8.63;;
7901;SDS011;3996;49.674;10.716;2022-12-07T12:20:04;9.83;;;6.90;;
7901;SDS011;3996;49.674;10.716;2022-12-07T12:22:43;11.77;;;7.00;;
7901;SDS011;3996;49.674;10.716;2022-12-07T12:25:23;9.53;;;6.67;;
7901;SDS011;3996;49.674;10.716;2022-12-07T12:28:30;8.93;;;6.33;;
7901;SDS011;3996;49.674;10.716;2022-12-07T12:31:13;10.20;;;7.30;;
7901;SDS011;3996;49.674;10.716;2022-12-07T12:34:02;12.10;;;8.07;;
7901;SDS011;3996;49.674;10.716;2022-12-07T12:44:08;12.80;;;7.17;;
7901;SDS011;3996;49.674;10.716;2022-12-07T12:46:54;11.93;;;7.73;;
7901;SDS011;3996;49.674;10.716;2022-12-07T12:52:01;11.37;;;7.33;;
7901;SDS011;3996;49.674;10.716;2022-12-07T12:54:29;12.83;;;8.13;;
7901;SDS011;3996;49.674;10.716;2022-12-07T13:00:33;13.93;;;9.10;;
7901;SDS011;3996;49.674;10.716;2022-12-07T13:02:47;16.03;;;8.77;;
7901;SDS011;3996;49.674;10.716;2022-12-07T13:05:18;11.17;;;7.10;;
7901;SDS011;3996;49.674;10.716;2022-12-07T13:07:53;13.33;;;8.10;;
7901;SDS011;3996;49.674;10.716;2022-12-07T13:12:58;15.27;;;8.87;;
7901;SDS011;3996;49.674;10.716;2022-12-07T13:18:21;11.43;;;7.80;;
7901;SDS011;3996;49.674;10.716;2022-12-07T13:26:14;12.83;;;8.07;;
7901;SDS011;3996;49.674;10.716;2022-12-07T13:34:05;12.47;;;7.13;;
7901;SDS011;3996;49.674;10.716;2022-12-07T13:36:53;9.03;;;6.03;;
7901;SDS011;3996;49.674;10.716;2022-12-07T13:39:20;10.40;;;6.20;;
7901;SDS011;3996;49.674;10.716;2022-12-07T13:41:51;8.23;;;6.07;;
7901;SDS011;3996;49.674;10.716;2022-12-07T13:44:18;7.57;;;5.53;;
7901;SDS011;3996;49.674;10.716;2022-12-07T13:46:57;10.00;;;6.00;;
7901;SDS011;3996;49.674;10.716;2022-12-07T13:51:50;12.40;;;8.80;;
7901;SDS011;3996;49.674;10.716;2022-12-07T13:54:17;11.60;;;7.47;;
7901;SDS011;3996;49.674;10.716;2022-12-07T13:56:43;23.63;;;15.03;;
7901;SDS011;3996;49.674;10.716;2022-12-07T13:59:19;12.63;;;8.13;;
7901;SDS011;3996;49.674;10.716;2022-12-07T14:01:50;11.10;;;6.40;;
7901;SDS011;3996;49.674;10.716;2022-12-07T14:04:26;9.53;;;6.10;;
7901;SDS011;3996;49.674;10.716;2022-12-07T14:07:24;11.83;;;6.70;;
7901;SDS011;3996;49.674;10.716;2022-12-07T14:10:25;10.60;;;6.60;;
7901;SDS011;3996;49.674;10.716;2022-12-07T14:13:00;9.80;;;6.27;;
7901;SDS011;3996;49.674;10.716;2022-12-07T14:15:33;8.47;;;6.33;;
7901;SDS011;3996;49.674;10.716;2022-12-07T14:18:00;10.07;;;6.60;;
7901;SDS011;3996;49.674;10.716;2022-12-07T14:23:01;9.70;;;6.77;;
7901;SDS011;3996;49.674;10.716;2022-12-07T14:25:44;9.87;;;6.67;;
7901;SDS011;3996;49.674;10.716;2022-12-07T14:28:31;9.30;;;7.13;;
7901;SDS011;3996;49.674;10.716;2022-12-07T14:30:58;9.23;;;6.90;;
7901;SDS011;3996;49.674;10.716;2022-12-07T14:33:24;18.10;;;10.60;;
7901;SDS011;3996;49.674;10.716;2022-12-07T14:35:50;14.13;;;8.80;;
7901;SDS011;3996;49.674;10.716;2022-12-07T14:38:25;12.67;;;8.10;;
7901;SDS011;3996;49.674;10.716;2022-12-07T14:40:51;15.13;;;8.80;;
7901;SDS011;3996;49.674;10.716;2022-12-07T14:43:18;13.23;;;9.73;;
7901;SDS011;3996;49.674;10.716;2022-12-07T14:45:47;11.90;;;8.47;;
7901;SDS011;3996;49.674;10.716;2022-12-07T14:48:13;10.57;;;7.77;;
7901;SDS011;3996;49.674;10.716;2022-12-07T14:50:58;11.20;;;7.20;;
7901;SDS011;3996;49.674;10.716;2022-12-07T14:53:26;10.03;;;6.90;;
7901;SDS011;3996;49.674;10.716;2022-12-07T14:55:55;10.73;;;7.33;;
7901;SDS011;3996;49.674;10.716;2022-12-07T14:58:20;11.90;;;7.53;;
7901;SDS011;3996;49.674;10.716;2022-12-07T15:00:46;12.10;;;6.70;;
7901;SDS011;3996;49.674;10.716;2022-12-07T15:03:12;10.33;;;7.30;;
7901;SDS011;3996;49.674;10.716;2022-12-07T15:05:38;11.80;;;7.87;;
7901;SDS011;3996;49.674;10.716;2022-12-07T15:08:04;13.63;;;8.10;;
7901;SDS011;3996;49.674;10.716;2022-12-07T15:10:31;19.87;;;7.93;;
7901;SDS011;3996;49.674;10.716;2022-12-07T15:12:58;14.67;;;8.97;;
7901;SDS011;3996;49.674;10.716;2022-12-07T15:15:46;12.57;;;7.70;;
7901;SDS011;3996;49.674;10.716;2022-12-07T15:18:12;12.00;;;7.10;;
7901;SDS011;3996;49.674;10.716;2022-12-07T15:20:38;9.53;;;7.13;;
7901;SDS011;3996;49.674;10.716;2022-12-07T15:23:04;9.87;;;6.63;;
7901;SDS011;3996;49.674;10.716;2022-12-07T15:25:29;9.10;;;6.40;;
7901;SDS011;3996;49.674;10.716;2022-12-07T15:27:55;10.13;;;6.47;;
7901;SDS011;3996;49.674;10.716;2022-12-07T15:30:21;8.83;;;5.83;;
7901;SDS011;3996;49.674;10.716;2022-12-07T15:32:50;10.07;;;6.17;;
7901;SDS011;3996;49.674;10.716;2022-12-07T15:35:16;10.30;;;6.63;;
7901;SDS011;3996;49.674;10.716;2022-12-07T15:37:41;10.23;;;7.67;;
7901;SDS011;3996;49.674;10.716;2022-12-07T15:40:07;11.00;;;7.77;;
7901;SDS011;3996;49.674;10.716;2022-12-07T15:42:35;9.50;;;6.53;;
7901;SDS011;3996;49.674;10.716;2022-12-07T15:45:01;10.17;;;6.77;;
7901;SDS011;3996;49.674;10.716;2022-12-07T15:47:34;14.73;;;8.73;;
7901;SDS011;3996;49.674;10.716;2022-12-07T15:50:04;16.17;;;9.20;;
7901;SDS011;3996;49.674;10.716;2022-12-07T15:52:31;13.23;;;9.30;;
7901;SDS011;3996;49.674;10.716;2022-12-07T15:54:57;13.97;;;9.43;;
7901;SDS011;3996;49.674;10.716;2022-12-07T15:57:24;11.17;;;8.17;;
7901;SDS011;3996;49.674;10.716;2022-12-07T15:59:50;10.97;;;8.07;;
7901;SDS011;3996;49.674;10.716;2022-12-07T16:02:16;12.57;;;7.77;;
7901;SDS011;3996;49.674;10.716;2022-12-07T16:04:42;11.63;;;7.83;;
7901;SDS011;3996;49.674;10.716;2022-12-07T16:07:07;13.40;;;8.33;;
7901;SDS011;3996;49.674;10.716;2022-12-07T16:09:33;18.27;;;10.73;;
7901;SDS011;3996;49.674;10.716;2022-12-07T16:11:59;17.67;;;11.17;;
7901;SDS011;3996;49.674;10.716;2022-12-07T16:14:24;17.63;;;10.07;;
7901;SDS011;3996;49.674;10.716;2022-12-07T16:16:50;15.93;;;9.60;;
7901;SDS011;3996;49.674;10.716;2022-12-07T16:19:16;12.20;;;8.50;;
7901;SDS011;3996;49.674;10.716;2022-12-07T16:21:42;11.53;;;8.47;;
7901;SDS011;3996;49.674;10.716;2022-12-07T16:24:08;15.00;;;10.20;;
7901;SDS011;3996;49.674;10.716;2022-12-07T16:26:35;14.37;;;10.43;;
7901;SDS011;3996;49.674;10.716;2022-12-07T16:29:00;13.30;;;9.90;;
7901;SDS011;3996;49.674;10.716;2022-12-07T16:31:26;14.63;;;10.87;;
7901;SDS011;3996;49.674;10.716;2022-12-07T16:33:53;17.17;;;10.70;;
7901;SDS011;3996;49.674;10.716;2022-12-07T16:36:21;15.40;;;11.27;;
7901;SDS011;3996;49.674;10.716;2022-12-07T16:38:47;17.67;;;12.07;;
7901;SDS011;3996;49.674;10.716;2022-12-07T16:41:13;19.70;;;12.70;;
7901;SDS011;3996;49.674;10.716;2022-12-07T16:43:39;20.30;;;13.03;;
7901;SDS011;3996;49.674;10.716;2022-12-07T16:46:05;19.03;;;11.70;;
7901;SDS011;3996;49.674;10.716;2022-12-07T16:48:31;16.07;;;11.50;;
7901;SDS011;3996;49.674;10.716;2022-12-07T16:50:56;15.07;;;10.57;;
7901;SDS011;3996;49.674;10.716;2022-12-07T16:53:22;14.43;;;9.90;;
7901;SDS011;3996;49.674;10.716;2022-12-07T16:55:49;15.50;;;10.70;;
7901;SDS011;3996;49.674;10.716;2022-12-07T16:58:15;16.13;;;10.80;;
7901;SDS011;3996;49.674;10.716;2022-12-07T17:00:42;17.30;;;11.03;;
7901;SDS011;3996;49.674;10.716;2022-12-07T17:03:08;16.87;;;10.90;;
7901;SDS011;3996;49.674;10.716;2022-12-07T17:05:40;14.83;;;10.30;;